Tampa, Florida
Traffic Map
Current Weather Conditions
Tampa, Florida
Broken Clouds
Broken Clouds
31°
Feels Like: 35°
Wind Chill: 31° Ceiling: 30000
Heat Index: 35° Visibility: 10mi
Dew Point: 22° Wind: 8mph
Humidity: 59% Direction: 270° (W)
Pressure: 29.99in Gusts: 0mph
Raw Report DataKTPA 022253Z 27007KT 10SM FEW036 FEW250 BKN300 31/22 A2999 RMK AO2 SLP156 CB DSNT E TCU DSNT NE-E AND S T03110222
Traffic Incident Summary
Active as of:
Severity:
Category:
InformationThere was an issue retrieving the traffic information for this location. Please try a different location or try again shortly.
Advertisements
Track Severe Weather on mobile